createdAt,value
2019-03-12T00:00:12.678Z,80.84
2019-03-12T00:02:39.887Z,80.56
2019-03-12T00:05:07.715Z,80.86
2019-03-12T00:07:34.203Z,80.82
2019-03-12T00:10:00.519Z,80.55
2019-03-12T00:12:26.905Z,80.76
2019-03-12T00:14:53.307Z,80.56
2019-03-12T00:17:19.651Z,80.34
2019-03-12T00:19:45.958Z,80.52
2019-03-12T00:22:12.546Z,80.66
2019-03-12T00:24:38.997Z,80.66
2019-03-12T00:27:05.447Z,80.66
2019-03-12T00:29:31.819Z,80.64
2019-03-12T00:31:58.682Z,80.71
2019-03-12T00:34:25.054Z,80.89
2019-03-12T00:36:51.469Z,80.81
2019-03-12T00:39:17.771Z,80.13
2019-03-12T00:41:44.299Z,79.78
2019-03-12T00:44:10.809Z,78.97
2019-03-12T00:46:37.118Z,78.69
2019-03-12T00:49:03.400Z,78.74
2019-03-12T00:51:29.900Z,78.16
2019-03-12T00:53:56.334Z,78.16
2019-03-12T00:56:22.630Z,78.08
2019-03-12T00:58:48.971Z,78.06
2019-03-12T01:01:15.489Z,77.91
2019-03-12T01:03:42.110Z,77.79
2019-03-12T01:06:08.645Z,77.71
2019-03-12T01:08:35.131Z,77.54
2019-03-12T01:11:01.502Z,77.81
2019-03-12T01:13:27.902Z,77.96
2019-03-12T01:15:54.310Z,78.26
2019-03-12T01:18:21.058Z,78.33
2019-03-12T01:20:47.582Z,78.19
2019-03-12T01:23:14.006Z,78.02
2019-03-12T01:25:40.595Z,78.55
2019-03-12T01:28:07.322Z,78.98
2019-03-12T01:30:33.671Z,79.05
2019-03-12T01:33:00.092Z,79.23
2019-03-12T01:35:26.545Z,79.54
2019-03-12T01:37:52.839Z,79.70
2019-03-12T01:40:19.179Z,79.67
2019-03-12T01:42:45.455Z,79.52
2019-03-12T01:45:13.311Z,79.35
2019-03-12T01:47:39.614Z,79.01
2019-03-12T01:50:13.067Z,78.43
2019-03-12T01:52:39.659Z,78.29
2019-03-12T01:55:10.613Z,78.31
2019-03-12T01:57:37.345Z,77.97
2019-03-12T02:00:11.767Z,78.12
2019-03-12T02:02:38.389Z,78.13
2019-03-12T02:05:05.347Z,77.85
2019-03-12T02:07:31.836Z,77.70
2019-03-12T02:09:58.322Z,77.69
2019-03-12T02:12:24.836Z,77.62
2019-03-12T02:14:51.515Z,77.75
2019-03-12T02:17:17.950Z,78.09
2019-03-12T02:19:44.445Z,77.64
2019-03-12T02:22:10.915Z,77.64
2019-03-12T02:24:37.315Z,77.67
2019-03-12T02:27:03.965Z,77.56
2019-03-12T02:29:30.348Z,77.34
2019-03-12T02:31:56.827Z,77.25
2019-03-12T02:34:23.223Z,77.54
2019-03-12T02:36:49.634Z,77.56
2019-03-12T02:39:16.108Z,77.65
2019-03-12T02:41:42.562Z,77.25
2019-03-12T02:44:08.995Z,77.41
2019-03-12T02:46:35.411Z,77.23
2019-03-12T02:49:01.836Z,77.36
2019-03-12T02:51:28.350Z,77.13
2019-03-12T02:53:54.730Z,76.93
2019-03-12T02:56:21.248Z,77.28
2019-03-12T02:58:47.632Z,77.34
2019-03-12T03:01:13.970Z,77.17
2019-03-12T03:03:40.355Z,77.20
2019-03-12T03:06:20.469Z,77.28
2019-03-12T03:08:46.983Z,77.29
2019-03-12T03:11:13.564Z,76.93
2019-03-12T03:13:39.853Z,77.10
2019-03-12T03:16:06.379Z,77.50
2019-03-12T03:18:32.944Z,77.16
2019-03-12T03:20:59.582Z,77.25
2019-03-12T03:23:25.903Z,77.27
2019-03-12T03:25:52.154Z,77.31
2019-03-12T03:28:18.489Z,77.29
2019-03-12T03:30:44.985Z,77.35
2019-03-12T03:33:11.683Z,77.60
2019-03-12T03:35:38.077Z,77.55
2019-03-12T03:38:04.388Z,77.65
2019-03-12T03:40:30.845Z,77.67
2019-03-12T03:42:57.536Z,77.72
2019-03-12T03:45:23.960Z,77.69
2019-03-12T03:47:50.588Z,77.69
2019-03-12T03:50:17.567Z,77.39
2019-03-12T03:52:44.069Z,77.28
2019-03-12T03:55:16.268Z,77.13
2019-03-12T03:57:43.379Z,77.26
2019-03-12T04:00:22.506Z,77.01
2019-03-12T04:02:49.251Z,76.87
2019-03-12T04:05:16.623Z,76.79
2019-03-12T04:07:43.142Z,77.04
2019-03-12T04:10:11.681Z,77.22
2019-03-12T04:12:38.263Z,77.48
2019-03-12T04:15:12.310Z,77.77
2019-03-12T04:17:38.636Z,77.48
2019-03-12T04:20:08.945Z,77.73
2019-03-12T04:22:35.263Z,77.72
2019-03-12T04:25:02.731Z,77.81
2019-03-12T04:27:29.302Z,77.82
2019-03-12T04:29:55.850Z,77.58
2019-03-12T04:32:22.223Z,77.64
2019-03-12T04:34:48.683Z,77.76
2019-03-12T04:37:15.005Z,77.34
2019-03-12T04:39:41.393Z,77.20
2019-03-12T04:42:08.188Z,76.88
2019-03-12T04:44:34.572Z,76.99
2019-03-12T04:47:01.163Z,77.18
2019-03-12T04:49:27.464Z,76.83
2019-03-12T04:51:54.031Z,76.63
2019-03-12T04:54:20.320Z,76.97
2019-03-12T04:56:46.953Z,76.80
2019-03-12T04:59:13.334Z,76.80
2019-03-12T05:01:43.151Z,76.62
2019-03-12T05:04:09.770Z,76.71
2019-03-12T05:06:36.240Z,76.83
2019-03-12T05:09:06.983Z,77.05
2019-03-12T05:11:33.350Z,77.10
2019-03-12T05:14:23.355Z,76.90
2019-03-12T05:16:52.527Z,76.58
2019-03-12T05:19:18.954Z,76.57
2019-03-12T05:21:45.407Z,76.36
2019-03-12T05:24:11.954Z,76.56
2019-03-12T05:26:38.336Z,76.69
2019-03-12T05:29:04.634Z,76.58
2019-03-12T05:31:31.079Z,76.24
2019-03-12T05:33:57.651Z,76.53
2019-03-12T05:36:24.241Z,76.51
2019-03-12T05:38:50.547Z,76.12
2019-03-12T05:41:16.871Z,76.22
2019-03-12T05:43:43.386Z,76.25
2019-03-12T05:46:09.987Z,75.44
2019-03-12T05:48:36.387Z,75.61
2019-03-12T05:51:03.091Z,76.35
2019-03-12T05:53:50.918Z,75.80
2019-03-12T05:56:17.409Z,75.75
2019-03-12T05:58:43.891Z,74.97
2019-03-12T06:01:10.277Z,74.38
2019-03-12T06:03:36.815Z,73.49
2019-03-12T06:06:03.602Z,73.46
2019-03-12T06:08:30.137Z,72.90
2019-03-12T06:10:56.542Z,72.74
2019-03-12T06:13:22.975Z,72.74
2019-03-12T06:15:53.013Z,72.79
2019-03-12T06:18:20.270Z,72.21
2019-03-12T06:20:48.564Z,72.40
2019-03-12T06:23:15.349Z,71.65
2019-03-12T06:25:42.402Z,70.96
2019-03-12T06:28:08.973Z,71.50
2019-03-12T06:30:37.375Z,70.92
2019-03-12T06:33:06.056Z,69.91
2019-03-12T06:35:54.150Z,68.96
2019-03-12T06:38:21.573Z,69.92
2019-03-12T06:40:50.480Z,69.21
2019-03-12T06:43:16.913Z,68.35
2019-03-12T06:46:01.728Z,69.06
2019-03-12T06:48:30.202Z,69.46
2019-03-12T06:51:01.119Z,69.82
2019-03-12T06:53:44.611Z,69.09
2019-03-12T06:56:12.819Z,69.36
2019-03-12T06:58:56.180Z,69.75
2019-03-12T07:01:36.360Z,70.73
2019-03-12T07:04:02.903Z,70.73
2019-03-12T07:06:47.491Z,69.82
2019-03-12T07:09:14.013Z,70.24
2019-03-12T07:11:54.191Z,70.04
2019-03-12T07:14:31.235Z,70.09
2019-03-12T07:16:57.567Z,70.29
2019-03-12T07:19:31.698Z,70.29
2019-03-12T07:21:58.164Z,70.16
2019-03-12T07:24:35.455Z,70.17
2019-03-12T07:27:03.764Z,70.35
2019-03-12T07:29:38.057Z,70.23
2019-03-12T07:32:16.607Z,70.28
2019-03-12T07:34:48.842Z,70.88
2019-03-12T07:37:19.903Z,70.69
2019-03-12T07:40:00.312Z,71.36
2019-03-12T07:42:34.782Z,71.30
2019-03-12T07:45:14.877Z,71.30
2019-03-12T07:47:59.786Z,71.94
2019-03-12T07:50:26.177Z,71.51
2019-03-12T07:53:03.099Z,71.69
2019-03-12T07:55:44.789Z,70.57
2019-03-12T07:58:34.870Z,70.56
2019-03-12T08:00:56.283Z,68.97
2019-03-12T08:03:42.486Z,69.81
2019-03-12T08:06:27.665Z,68.88
2019-03-12T08:09:03.514Z,69.36
2019-03-12T08:11:31.816Z,69.10
2019-03-12T08:14:13.137Z,68.84
2019-03-12T08:16:43.976Z,69.87
2019-03-12T08:19:18.160Z,69.29
2019-03-12T08:21:49.552Z,68.40
2019-03-12T08:24:19.470Z,68.63
2019-03-12T08:26:58.374Z,68.09
2019-03-12T08:29:29.159Z,68.08
2019-03-12T08:32:03.350Z,68.00
2019-03-12T08:34:46.899Z,67.36
2019-03-12T08:37:15.370Z,66.46
2019-03-12T08:40:00.650Z,65.99
2019-03-12T08:42:37.788Z,66.32
2019-03-12T08:45:11.069Z,65.52
2019-03-12T08:47:56.015Z,65.25
2019-03-12T08:50:27.493Z,64.18
2019-03-12T08:53:04.787Z,63.37
2019-03-12T08:55:31.155Z,62.33
2019-03-12T08:58:16.108Z,60.44
2019-03-12T09:00:56.823Z,61.38
2019-03-12T09:03:35.147Z,61.50
2019-03-12T09:06:21.432Z,61.18
2019-03-12T09:08:53.985Z,61.43
2019-03-12T09:11:31.165Z,62.26
2019-03-12T09:14:08.356Z,62.74
2019-03-12T09:16:36.697Z,62.63
2019-03-12T09:19:03.353Z,63.01
2019-03-12T09:21:46.858Z,63.19
2019-03-12T09:24:19.111Z,63.57
2019-03-12T09:27:01.060Z,64.00
2019-03-12T09:29:45.971Z,65.98
2019-03-12T09:32:23.428Z,65.81
2019-03-12T09:35:07.486Z,65.79
2019-03-12T09:37:35.868Z,63.59
2019-03-12T09:40:38.139Z,62.84
2019-03-12T09:43:12.763Z,61.83
2019-03-12T09:45:47.824Z,64.46
2019-03-12T09:48:33.168Z,62.98
2019-03-12T09:51:11.313Z,63.26
2019-03-12T09:53:57.171Z,61.12
2019-03-12T09:56:27.152Z,61.98
2019-03-12T09:59:13.057Z,61.22
2019-03-12T10:01:59.683Z,62.85
2019-03-12T10:04:42.091Z,60.33
2019-03-12T10:07:14.764Z,59.97
2019-03-12T10:09:48.934Z,61.62
2019-03-12T10:12:19.081Z,59.61
2019-03-12T10:14:57.245Z,60.57
2019-03-12T10:17:35.507Z,59.14
2019-03-12T10:20:24.794Z,57.20
2019-03-12T10:22:52.980Z,55.77
2019-03-12T10:25:38.552Z,58.91
2019-03-12T10:28:09.168Z,58.35
2019-03-12T10:30:39.930Z,59.42
2019-03-12T10:33:26.518Z,59.28
2019-03-12T10:36:02.064Z,57.30
2019-03-12T10:39:26.762Z,58.00
2019-03-12T10:42:00.469Z,57.63
2019-03-12T10:44:29.801Z,58.09
2019-03-12T10:47:02.481Z,56.69
2019-03-12T10:49:37.478Z,56.29
2019-03-12T10:51:58.927Z,56.94
2019-03-12T10:54:25.942Z,59.01
2019-03-12T10:56:53.847Z,58.23
2019-03-12T10:59:20.913Z,59.47
2019-03-12T11:01:48.637Z,58.75
2019-03-12T11:04:15.878Z,58.73
2019-03-12T11:06:43.861Z,58.83
2019-03-12T11:09:12.155Z,57.76
2019-03-12T11:11:40.206Z,58.25
2019-03-12T11:14:08.106Z,57.69
2019-03-12T11:16:36.452Z,56.51
2019-03-12T11:19:04.343Z,56.52
2019-03-12T11:21:32.831Z,56.04
2019-03-12T11:24:01.193Z,56.04
2019-03-12T11:26:29.427Z,55.70
2019-03-12T11:28:58.062Z,54.35
2019-03-12T11:31:26.293Z,55.41
2019-03-12T11:33:54.264Z,54.85
2019-03-12T11:36:22.497Z,54.96
2019-03-12T11:38:51.022Z,55.18
2019-03-12T11:41:19.265Z,55.71
2019-03-12T11:43:47.907Z,57.48
2019-03-12T11:46:15.174Z,57.83
2019-03-12T11:48:43.529Z,55.46
2019-03-12T11:51:12.011Z,55.98
2019-03-12T11:53:40.166Z,55.20
2019-03-12T11:56:07.318Z,54.57
2019-03-12T11:58:34.470Z,53.59
2019-03-12T12:01:06.159Z,53.12
2019-03-12T12:03:33.271Z,53.74
2019-03-12T12:06:00.881Z,54.46
2019-03-12T12:08:28.613Z,53.10
2019-03-12T12:10:56.883Z,52.67
2019-03-12T12:13:24.468Z,52.95
2019-03-12T12:15:52.301Z,52.52
2019-03-12T12:18:19.877Z,52.34
2019-03-12T12:20:48.439Z,51.96
2019-03-12T12:23:15.698Z,53.69
2019-03-12T12:25:44.192Z,53.31
2019-03-12T12:28:11.993Z,52.88
2019-03-12T12:30:39.721Z,53.16
2019-03-12T12:33:07.919Z,52.37
2019-03-12T12:35:35.542Z,52.53
2019-03-12T12:38:03.710Z,52.58
2019-03-12T12:40:31.418Z,52.44
2019-03-12T12:42:59.772Z,53.79
2019-03-12T12:45:31.073Z,53.42
2019-03-12T12:47:59.784Z,52.49
2019-03-12T12:50:28.145Z,53.00
2019-03-12T12:52:56.250Z,53.55
2019-03-12T12:55:23.713Z,52.41
2019-03-12T12:57:52.335Z,52.43
2019-03-12T13:00:25.450Z,52.51
2019-03-12T13:02:53.939Z,53.15
2019-03-12T13:05:22.737Z,52.28
2019-03-12T13:07:51.482Z,52.81
2019-03-12T13:10:24.979Z,51.74
2019-03-12T13:12:54.682Z,51.35
2019-03-12T13:15:23.045Z,51.66
2019-03-12T13:17:51.800Z,52.16
2019-03-12T13:20:18.739Z,50.23
2019-03-12T13:22:47.425Z,52.19
2019-03-12T13:25:16.931Z,51.00
2019-03-12T13:27:44.936Z,50.37
2019-03-12T13:30:24.620Z,50.75
2019-03-12T13:32:52.964Z,50.00
2019-03-12T13:35:21.567Z,51.34
2019-03-12T13:37:50.168Z,51.45
2019-03-12T13:40:24.565Z,51.60
2019-03-12T13:42:53.070Z,51.73
2019-03-12T13:45:26.177Z,50.93
2019-03-12T13:47:54.995Z,51.78
2019-03-12T13:50:23.298Z,52.08
2019-03-12T13:52:51.666Z,52.06
2019-03-12T13:55:19.358Z,52.72
2019-03-12T13:57:47.735Z,52.56
2019-03-12T14:00:25.913Z,51.64
2019-03-12T14:02:54.320Z,52.20
2019-03-12T14:05:24.147Z,51.85
2019-03-12T14:07:52.664Z,52.24
2019-03-12T14:10:26.351Z,51.28
2019-03-12T14:12:55.518Z,51.42
2019-03-12T14:15:31.570Z,51.78
2019-03-12T14:18:00.081Z,52.18
2019-03-12T14:20:43.519Z,52.17
2019-03-12T14:23:22.129Z,51.81
2019-03-12T14:25:50.918Z,51.38
2019-03-12T14:28:19.325Z,51.45
2019-03-12T14:30:47.866Z,51.86
2019-03-12T14:33:16.485Z,52.50
2019-03-12T14:35:51.437Z,51.71
2019-03-12T14:38:15.427Z,52.01
2019-03-12T14:40:43.591Z,51.47
2019-03-12T14:43:12.055Z,52.24
2019-03-12T14:45:53.661Z,52.01
2019-03-12T14:48:45.448Z,52.20
2019-03-12T14:51:21.039Z,51.22
2019-03-12T14:53:53.581Z,51.35
2019-03-12T14:56:21.968Z,51.55
2019-03-12T14:58:51.425Z,52.45
2019-03-12T15:01:23.514Z,53.07
2019-03-12T15:03:51.882Z,51.50
2019-03-12T15:06:20.381Z,51.93
2019-03-12T15:08:49.019Z,51.52
2019-03-12T15:11:17.354Z,50.26
2019-03-12T15:13:45.813Z,51.74
2019-03-12T15:16:13.965Z,50.50
2019-03-12T15:18:42.717Z,50.87
2019-03-12T15:21:11.113Z,51.55
2019-03-12T15:23:39.489Z,51.29
2019-03-12T15:26:08.027Z,52.44
2019-03-12T15:28:36.481Z,53.16
2019-03-12T15:31:05.128Z,52.80
2019-03-12T15:33:33.517Z,53.06
2019-03-12T15:36:02.049Z,52.77
2019-03-12T15:38:30.754Z,53.29
2019-03-12T15:40:58.949Z,53.92
2019-03-12T15:43:27.186Z,53.56
2019-03-12T15:45:55.822Z,54.02
2019-03-12T15:48:23.965Z,54.49
2019-03-12T15:50:52.362Z,54.48
2019-03-12T15:53:21.215Z,54.58
2019-03-12T15:55:50.491Z,54.56
2019-03-12T15:58:18.986Z,54.50
2019-03-12T16:00:47.144Z,55.21
2019-03-12T16:03:15.448Z,55.66
2019-03-12T16:05:43.773Z,55.93
2019-03-12T16:08:13.945Z,55.82
2019-03-12T16:10:42.536Z,56.31
2019-03-12T16:13:11.515Z,56.05
2019-03-12T16:15:40.147Z,56.55
2019-03-12T16:18:08.537Z,56.62
2019-03-12T16:20:36.669Z,56.85
2019-03-12T16:23:04.838Z,56.87
2019-03-12T16:25:32.978Z,57.30
2019-03-12T16:28:01.611Z,57.35
2019-03-12T16:30:30.582Z,58.30
2019-03-12T16:32:59.264Z,57.91
2019-03-12T16:35:27.643Z,57.81
2019-03-12T16:37:56.172Z,58.31
2019-03-12T16:40:24.323Z,58.11
2019-03-12T16:42:53.216Z,57.58
2019-03-12T16:45:21.626Z,57.46
2019-03-12T16:47:50.457Z,57.99
2019-03-12T16:50:18.885Z,57.95
2019-03-12T16:52:47.314Z,58.22
2019-03-12T16:55:18.727Z,58.05
2019-03-12T16:57:48.484Z,58.35
2019-03-12T17:00:18.399Z,58.38
2019-03-12T17:02:46.152Z,58.83
2019-03-12T17:05:14.733Z,58.90
2019-03-12T17:07:42.047Z,59.20
2019-03-12T17:10:20.369Z,59.29
2019-03-12T17:12:48.828Z,59.61
2019-03-12T17:15:19.160Z,59.87
2019-03-12T17:17:47.277Z,59.82
2019-03-12T17:20:16.185Z,59.98
2019-03-12T17:22:44.506Z,59.99
2019-03-12T17:25:12.960Z,60.52
2019-03-12T17:27:41.521Z,60.33
2019-03-12T17:30:21.372Z,60.30
2019-03-12T17:32:49.632Z,60.25
2019-03-12T17:35:33.356Z,60.38
2019-03-12T17:38:00.859Z,60.41
2019-03-12T17:40:28.414Z,60.55
2019-03-12T17:42:57.025Z,60.74
2019-03-12T17:45:25.605Z,60.59
2019-03-12T17:47:53.856Z,60.41
2019-03-12T17:50:21.338Z,60.82
2019-03-12T17:52:49.890Z,60.72
2019-03-12T17:55:18.273Z,60.42
2019-03-12T17:57:45.920Z,60.99
2019-03-12T18:00:24.006Z,61.01
2019-03-12T18:02:52.720Z,60.76
2019-03-12T18:05:21.134Z,60.62
2019-03-12T18:07:49.700Z,61.23
2019-03-12T18:10:18.517Z,61.49
2019-03-12T18:12:46.306Z,62.44
2019-03-12T18:15:20.217Z,62.37
2019-03-12T18:17:48.013Z,62.57
2019-03-12T18:20:19.915Z,62.83
2019-03-12T18:22:47.468Z,62.99
2019-03-12T18:25:34.566Z,62.85
2019-03-12T18:28:02.087Z,62.93
2019-03-12T18:30:30.212Z,63.10
2019-03-12T18:32:58.565Z,63.25
2019-03-12T18:35:26.012Z,63.59
2019-03-12T18:37:54.328Z,63.57
2019-03-12T18:40:24.719Z,63.50
2019-03-12T18:42:52.291Z,63.61
2019-03-12T18:45:32.339Z,63.51
2019-03-12T18:48:00.606Z,63.66
2019-03-12T18:50:28.838Z,63.68
2019-03-12T18:52:56.626Z,63.96
2019-03-12T18:55:37.966Z,63.34
2019-03-12T18:58:07.125Z,62.81
2019-03-12T19:00:36.451Z,62.63
2019-03-12T19:03:04.522Z,62.62
2019-03-12T19:05:33.118Z,62.56
2019-03-12T19:08:01.353Z,62.58
2019-03-12T19:10:29.961Z,62.64
2019-03-12T19:12:58.631Z,62.87
2019-03-12T19:15:27.096Z,62.97
2019-03-12T19:17:55.424Z,62.91
2019-03-12T19:20:23.971Z,63.18
2019-03-12T19:22:52.309Z,62.99
2019-03-12T19:25:26.053Z,62.89
2019-03-12T19:27:59.671Z,62.70
2019-03-12T19:30:24.588Z,62.86
2019-03-12T19:32:55.280Z,62.99
2019-03-12T19:35:25.942Z,62.90
2019-03-12T19:37:54.473Z,62.93
2019-03-12T19:40:38.241Z,63.22
2019-03-12T19:43:05.832Z,63.20
2019-03-12T19:45:34.275Z,63.40
2019-03-12T19:48:02.754Z,63.46
2019-03-12T19:50:30.922Z,63.49
2019-03-12T19:52:59.257Z,62.95
2019-03-12T19:55:48.404Z,62.82
2019-03-12T19:58:16.728Z,62.33
2019-03-12T20:00:45.787Z,62.58
2019-03-12T20:03:15.417Z,62.66
2019-03-12T20:05:44.179Z,62.66
2019-03-12T20:08:12.658Z,62.11
2019-03-12T20:11:23.841Z,61.90
2019-03-12T20:14:34.847Z,62.02
2019-03-12T20:17:38.405Z,62.35
2019-03-12T20:20:41.171Z,62.27
2019-03-12T20:23:22.944Z,62.25
2019-03-12T20:26:30.557Z,62.79
2019-03-12T20:29:41.821Z,62.44
2019-03-12T20:32:43.493Z,62.27
2019-03-12T20:35:35.841Z,62.36
2019-03-12T20:38:56.012Z,62.02
2019-03-12T20:42:17.779Z,62.30
2019-03-12T20:45:41.007Z,61.93
2019-03-12T20:49:10.749Z,62.01
2019-03-12T20:51:59.795Z,62.18
2019-03-12T20:54:49.090Z,62.27
2019-03-12T20:58:13.753Z,62.50
2019-03-12T21:01:18.946Z,62.57
2019-03-12T21:04:26.902Z,62.77
2019-03-12T21:07:43.637Z,62.72
2019-03-12T21:10:51.405Z,62.81
2019-03-12T21:13:48.593Z,62.70
2019-03-12T21:16:40.048Z,62.81
2019-03-12T21:19:52.295Z,63.05
2019-03-12T21:22:43.307Z,62.82
2019-03-12T21:25:37.283Z,62.62
2019-03-12T21:28:48.050Z,61.99
2019-03-12T21:31:15.335Z,62.03
2019-03-12T21:33:42.388Z,61.43
2019-03-12T21:36:09.239Z,61.23
2019-03-12T21:38:36.449Z,61.70
2019-03-12T21:41:03.103Z,61.61
2019-03-12T21:43:29.776Z,61.87
2019-03-12T21:45:56.271Z,62.06
2019-03-12T21:48:23.311Z,62.00
2019-03-12T21:50:50.050Z,62.30
2019-03-12T21:53:16.589Z,62.35
2019-03-12T21:55:43.236Z,62.65
2019-03-12T21:58:09.859Z,62.62
2019-03-12T22:00:36.700Z,62.54
2019-03-12T22:03:03.327Z,62.71
2019-03-12T22:05:29.976Z,62.42
2019-03-12T22:07:56.428Z,62.43
2019-03-12T22:10:22.844Z,62.19
2019-03-12T22:12:49.512Z,62.54
2019-03-12T22:15:16.082Z,62.35
2019-03-12T22:17:42.739Z,62.46
2019-03-12T22:20:14.279Z,61.99
2019-03-12T22:22:55.179Z,62.04
2019-03-12T22:25:21.918Z,61.62
2019-03-12T22:27:48.352Z,61.42
2019-03-12T22:30:20.473Z,61.14
2019-03-12T22:32:46.957Z,61.21
2019-03-12T22:35:13.388Z,61.06
2019-03-12T22:37:39.813Z,60.90
2019-03-12T22:40:10.648Z,60.83
2019-03-12T22:42:36.984Z,60.66
2019-03-12T22:45:07.732Z,60.64
2019-03-12T22:47:34.314Z,60.57
2019-03-12T22:50:00.686Z,60.62
2019-03-12T22:52:27.222Z,60.64
2019-03-12T22:54:53.757Z,60.58
2019-03-12T22:57:20.291Z,60.35
2019-03-12T22:59:46.668Z,60.44
2019-03-12T23:02:13.363Z,60.40
2019-03-12T23:04:40.012Z,60.42
2019-03-12T23:07:06.575Z,59.92
2019-03-12T23:09:33.185Z,60.36
2019-03-12T23:12:00.028Z,60.07
2019-03-12T23:14:26.873Z,60.05
2019-03-12T23:16:53.610Z,60.38
2019-03-12T23:19:20.458Z,60.14
2019-03-12T23:21:47.092Z,60.21
2019-03-12T23:24:14.035Z,60.10
2019-03-12T23:26:40.775Z,60.07
2019-03-12T23:29:07.650Z,60.26
2019-03-12T23:31:34.505Z,60.29
2019-03-12T23:34:01.202Z,60.51
2019-03-12T23:36:27.840Z,60.33
2019-03-12T23:38:54.579Z,60.38
2019-03-12T23:41:21.322Z,60.13
2019-03-12T23:43:48.057Z,60.28
2019-03-12T23:46:14.901Z,60.45
2019-03-12T23:48:41.793Z,60.33
2019-03-12T23:51:08.484Z,60.63
2019-03-12T23:53:35.327Z,60.29
2019-03-12T23:56:02.067Z,60.44
2019-03-12T23:58:29.523Z,60.29
